createdAt,value
2023-04-06T00:03:12.688Z,98729.00
2023-04-06T00:08:16.812Z,98725.72
2023-04-06T00:13:22.525Z,98727.44
2023-04-06T00:18:26.573Z,98721.47
2023-04-06T00:23:30.650Z,98723.41
2023-04-06T00:28:36.765Z,98716.19
2023-04-06T00:33:40.838Z,98718.72
2023-04-06T00:38:45.513Z,98716.50
2023-04-06T00:43:50.806Z,98706.44
2023-04-06T00:48:55.130Z,98709.66
2023-04-06T00:53:59.442Z,98709.09
2023-04-06T00:59:05.264Z,98703.88
2023-04-06T01:04:09.886Z,98702.63
2023-04-06T01:09:19.332Z,98704.06
2023-04-06T01:14:26.658Z,98703.84
2023-04-06T01:19:35.597Z,98698.84
2023-04-06T01:24:41.590Z,98700.69
2023-04-06T01:30:09.221Z,98694.91
2023-04-06T01:35:35.652Z,98692.25
2023-04-06T01:40:51.779Z,98697.84
2023-04-06T01:45:58.953Z,98692.59
2023-04-06T01:51:07.960Z,98690.25
2023-04-06T01:56:21.097Z,98690.53
2023-04-06T02:01:36.141Z,98690.44
2023-04-06T02:06:40.754Z,98683.63
2023-04-06T02:11:48.831Z,98676.13
2023-04-06T02:16:53.275Z,98677.09
2023-04-06T02:21:57.707Z,98678.91
2023-04-06T02:27:02.971Z,98672.03
2023-04-06T02:32:06.977Z,98674.38
2023-04-06T02:37:11.227Z,98671.34
2023-04-06T02:42:17.580Z,98673.56
2023-04-06T02:47:24.034Z,98671.69
2023-04-06T02:52:29.293Z,98677.81
2023-04-06T02:57:36.335Z,98668.16
2023-04-06T03:02:41.117Z,98668.88
2023-04-06T03:07:49.187Z,98673.91
2023-04-06T03:13:05.814Z,98666.94
2023-04-06T03:18:33.775Z,98673.41
2023-04-06T03:23:38.579Z,98686.44
2023-04-06T03:28:45.708Z,98677.28
2023-04-06T03:33:50.469Z,98675.63
2023-04-06T03:38:59.996Z,98678.72
2023-04-06T03:44:07.090Z,98684.63
2023-04-06T03:49:11.491Z,98683.31
2023-04-06T03:54:17.061Z,98687.50
2023-04-06T03:59:22.940Z,98687.81
2023-04-06T04:04:30.864Z,98693.56
2023-04-06T04:09:35.845Z,98690.97
2023-04-06T04:14:41.426Z,98690.34
2023-04-06T04:19:45.631Z,98690.25
2023-04-06T04:24:51.691Z,98694.91
2023-04-06T04:29:57.539Z,98692.97
2023-04-06T04:35:01.866Z,98692.66
2023-04-06T04:40:14.606Z,98685.41
2023-04-06T04:45:29.312Z,98692.13
2023-04-06T04:50:35.539Z,98680.00
2023-04-06T04:55:39.745Z,98684.78
2023-04-06T05:00:45.385Z,98693.69
2023-04-06T05:05:49.680Z,98694.34
2023-04-06T05:10:55.802Z,98682.59
2023-04-06T05:16:01.560Z,98684.84
2023-04-06T05:21:09.314Z,98684.50
2023-04-06T05:26:22.445Z,98694.75
2023-04-06T05:31:31.946Z,98688.53
2023-04-06T05:36:36.347Z,98691.69
2023-04-06T05:41:46.231Z,98686.66
2023-04-06T05:46:53.851Z,98684.91
2023-04-06T05:51:58.954Z,98683.22
2023-04-06T05:57:04.247Z,98689.06
2023-04-06T06:02:10.353Z,98679.22
2023-04-06T06:07:19.358Z,98691.13
2023-04-06T06:12:31.668Z,98694.66
2023-04-06T06:17:39.182Z,98685.88
2023-04-06T06:22:43.423Z,98688.47
2023-04-06T06:27:53.005Z,98690.00
2023-04-06T06:32:59.353Z,98692.59
2023-04-06T06:38:05.641Z,98687.94
2023-04-06T06:43:10.694Z,98690.06
2023-04-06T06:48:29.178Z,98693.31
2023-04-06T06:53:33.343Z,98685.97
2023-04-06T06:58:37.623Z,98693.47
2023-04-06T07:03:42.956Z,98689.84
2023-04-06T07:08:47.712Z,98694.63
2023-04-06T07:13:52.392Z,98696.41
2023-04-06T07:18:57.768Z,98696.47
2023-04-06T07:24:02.744Z,98703.25
2023-04-06T07:29:06.807Z,98705.00
2023-04-06T07:34:12.272Z,98698.72
2023-04-06T07:39:17.309Z,98704.03
2023-04-06T07:44:22.301Z,98701.63
2023-04-06T07:49:28.436Z,98700.66
2023-04-06T07:54:33.107Z,98701.81
2023-04-06T07:59:37.373Z,98711.34
2023-04-06T08:04:45.183Z,98707.22
2023-04-06T08:09:49.855Z,98702.97
2023-04-06T08:14:53.746Z,98707.78
2023-04-06T08:19:59.137Z,98694.31
2023-04-06T08:25:03.387Z,98701.91
2023-04-06T08:30:08.414Z,98699.97
2023-04-06T08:35:13.858Z,98698.59
2023-04-06T08:40:18.223Z,98684.28
2023-04-06T08:45:22.629Z,98693.94
2023-04-06T08:50:29.157Z,98688.22
2023-04-06T08:55:33.443Z,98685.53
2023-04-06T09:00:40.449Z,98689.03
2023-04-06T09:05:46.386Z,98678.09
2023-04-06T09:10:52.997Z,98672.25
2023-04-06T09:16:04.085Z,98664.44
2023-04-06T09:21:11.683Z,98668.59
2023-04-06T09:26:16.593Z,98670.25
2023-04-06T09:31:24.494Z,98645.16
2023-04-06T09:36:33.767Z,98662.63
2023-04-06T09:41:37.973Z,98655.31
2023-04-06T09:46:58.662Z,98654.31
2023-04-06T09:52:06.067Z,98649.06
2023-04-06T09:57:15.065Z,98648.41
2023-04-06T10:02:25.422Z,98648.84
2023-04-06T10:07:32.344Z,98649.28
2023-04-06T10:12:36.478Z,98641.72
2023-04-06T10:17:40.535Z,98631.94
2023-04-06T10:22:55.317Z,98632.50
2023-04-06T10:28:02.805Z,98631.63
2023-04-06T10:33:15.112Z,98615.06
2023-04-06T10:38:23.148Z,98614.06
2023-04-06T10:43:27.310Z,98608.03
2023-04-06T10:48:39.968Z,98598.81
2023-04-06T10:53:49.243Z,98595.47
2023-04-06T10:58:56.835Z,98601.19
2023-04-06T11:04:01.341Z,98594.38
2023-04-06T11:09:06.891Z,98589.13
2023-04-06T11:14:11.890Z,98582.44
2023-04-06T11:19:16.243Z,98583.13
2023-04-06T11:24:23.129Z,98581.94
2023-04-06T11:29:29.265Z,98574.94
2023-04-06T11:34:37.823Z,98570.97
2023-04-06T11:39:51.764Z,98573.53
2023-04-06T11:44:56.748Z,98568.13
2023-04-06T11:50:08.966Z,98560.69
2023-04-06T11:55:16.454Z,98555.22
2023-04-06T12:00:22.446Z,98552.25
2023-04-06T12:05:26.321Z,98544.72
2023-04-06T12:10:31.665Z,98548.66
2023-04-06T12:15:35.874Z,98540.81
2023-04-06T12:20:39.812Z,98538.41
2023-04-06T12:25:45.321Z,98536.56
2023-04-06T12:30:49.296Z,98532.41
2023-04-06T12:35:53.186Z,98524.66
2023-04-06T12:40:58.584Z,98523.41
2023-04-06T12:46:02.472Z,98515.34
2023-04-06T12:51:07.596Z,98517.22
2023-04-06T12:56:18.039Z,98516.81
2023-04-06T13:01:22.338Z,98512.41
2023-04-06T13:06:28.531Z,98506.97
2023-04-06T13:11:33.991Z,98499.03
2023-04-06T13:16:38.701Z,98491.06
2023-04-06T13:21:42.790Z,98484.00
2023-04-06T13:26:48.270Z,98487.28
2023-04-06T13:31:52.250Z,98476.63
2023-04-06T13:36:56.338Z,98471.97
2023-04-06T13:42:03.908Z,98475.28
2023-04-06T13:47:08.113Z,98472.28
2023-04-06T13:52:12.403Z,98470.28
2023-04-06T13:57:18.491Z,98463.41
2023-04-06T14:02:28.486Z,98464.56
2023-04-06T14:07:32.521Z,98467.41
2023-04-06T14:12:37.970Z,98471.16
2023-04-06T14:17:42.114Z,98468.34
2023-04-06T14:22:45.998Z,98464.97
2023-04-06T14:27:51.461Z,98466.47
2023-04-06T14:32:55.387Z,98460.84
2023-04-06T14:37:59.391Z,98457.56
2023-04-06T14:43:04.744Z,98459.00
2023-04-06T14:48:12.811Z,98462.75
2023-04-06T14:53:16.700Z,98457.13
2023-04-06T14:58:23.317Z,98458.41
2023-04-06T15:03:27.374Z,98466.50
2023-04-06T15:08:31.556Z,98467.19
2023-04-06T15:13:39.537Z,98458.38
2023-04-06T15:18:43.657Z,98452.09
2023-04-06T15:23:49.231Z,98455.81
2023-04-06T15:28:54.869Z,98447.06
2023-04-06T15:33:58.732Z,98453.22
2023-04-06T15:39:02.976Z,98446.81
2023-04-06T15:44:08.427Z,98444.00
2023-04-06T15:49:12.272Z,98438.06
2023-04-06T15:54:16.450Z,98436.78
2023-04-06T15:59:22.071Z,98435.00
2023-04-06T16:04:26.140Z,98442.94
2023-04-06T16:09:30.265Z,98439.78
2023-04-06T16:14:35.550Z,98444.78
2023-04-06T16:19:39.743Z,98439.84
2023-04-06T16:24:43.623Z,98434.84
2023-04-06T16:29:49.166Z,98436.63
2023-04-06T16:34:53.329Z,98432.25
2023-04-06T16:39:57.447Z,98439.84
2023-04-06T16:45:02.934Z,98445.00
2023-04-06T16:50:08.442Z,98450.13
2023-04-06T16:55:12.951Z,98449.09
2023-04-06T17:00:20.676Z,98459.47
2023-04-06T17:05:26.849Z,98460.03
2023-04-06T17:10:33.861Z,98462.94
2023-04-06T17:15:46.172Z,98454.41
2023-04-06T17:20:50.386Z,98456.13
2023-04-06T17:25:57.484Z,98458.63
2023-04-06T17:31:02.949Z,98467.13
2023-04-06T17:36:08.023Z,98464.56
2023-04-06T17:41:12.863Z,98473.94
2023-04-06T17:46:18.346Z,98471.63
2023-04-06T17:51:22.406Z,98466.22
2023-04-06T17:56:26.798Z,98472.88
2023-04-06T18:01:32.657Z,98478.75
2023-04-06T18:06:37.486Z,98471.38
2023-04-06T18:11:41.686Z,98467.41
2023-04-06T18:16:46.891Z,98472.78
2023-04-06T18:21:50.956Z,98467.84
2023-04-06T18:26:54.980Z,98468.19
2023-04-06T18:32:00.325Z,98454.47
2023-04-06T18:37:04.281Z,98446.88
2023-04-06T18:42:08.257Z,98450.84
2023-04-06T18:47:13.646Z,98450.28
2023-04-06T18:52:17.592Z,98453.53
2023-04-06T18:57:21.489Z,98445.13
2023-04-06T19:02:27.240Z,98438.34
2023-04-06T19:07:31.434Z,98429.22
2023-04-06T19:12:38.114Z,98424.34
2023-04-06T19:17:44.698Z,98417.56
2023-04-06T19:22:50.078Z,98423.75
2023-04-06T19:27:54.203Z,98416.94
2023-04-06T19:32:59.568Z,98415.53
2023-04-06T19:38:04.105Z,98417.19
2023-04-06T19:43:08.375Z,98415.09
2023-04-06T19:48:13.867Z,98406.91
2023-04-06T19:53:17.723Z,98413.59
2023-04-06T19:58:21.899Z,98411.00
2023-04-06T20:03:27.581Z,98409.16
2023-04-06T20:08:31.596Z,98402.38
2023-04-06T20:13:35.911Z,98400.06
2023-04-06T20:18:41.142Z,98397.84
2023-04-06T20:23:45.110Z,98394.44
2023-04-06T20:28:48.979Z,98390.00
2023-04-06T20:33:54.643Z,98388.81
2023-04-06T20:38:58.521Z,98387.06
2023-04-06T20:44:02.678Z,98376.78
2023-04-06T20:49:08.180Z,98376.94
2023-04-06T20:54:12.309Z,98382.91
2023-04-06T20:59:16.620Z,98372.50
2023-04-06T21:04:22.899Z,98373.00
2023-04-06T21:09:28.204Z,98364.81
2023-04-06T21:14:32.349Z,98359.66
2023-04-06T21:19:37.914Z,98363.97
2023-04-06T21:24:43.121Z,98357.31
2023-04-06T21:29:47.040Z,98352.78
2023-04-06T21:34:52.441Z,98349.38
2023-04-06T21:39:57.640Z,98353.09
2023-04-06T21:45:01.883Z,98345.19
2023-04-06T21:50:08.181Z,98346.81
2023-04-06T21:55:12.468Z,98335.94
2023-04-06T22:00:17.716Z,98333.72
2023-04-06T22:05:23.197Z,98326.84
2023-04-06T22:10:27.125Z,98319.69
2023-04-06T22:15:31.888Z,98319.28
2023-04-06T22:20:37.103Z,98326.25
2023-04-06T22:25:41.282Z,98316.69
2023-04-06T22:30:45.137Z,98309.44
2023-04-06T22:35:50.612Z,98307.81
2023-04-06T22:40:54.482Z,98298.47
2023-04-06T22:45:58.659Z,98303.50
2023-04-06T22:51:04.121Z,98302.53
2023-04-06T22:56:08.237Z,98292.75
2023-04-06T23:01:12.343Z,98297.53
2023-04-06T23:06:18.425Z,98293.44
2023-04-06T23:11:22.358Z,98288.19
2023-04-06T23:16:26.458Z,98289.59
2023-04-06T23:21:33.154Z,98283.06
2023-04-06T23:26:37.203Z,98271.94
2023-04-06T23:31:41.134Z,98271.47
2023-04-06T23:36:46.666Z,98269.38
2023-04-06T23:41:50.737Z,98269.16
2023-04-06T23:46:55.025Z,98246.75
2023-04-06T23:52:00.480Z,98248.47
2023-04-06T23:57:04.649Z,98246.84
